createdAt,value
2023-05-09T00:01:19.567Z,13.70
2023-05-09T00:03:47.707Z,13.80
2023-05-09T00:06:16.108Z,13.90
2023-05-09T00:08:45.416Z,14.00
2023-05-09T00:11:13.434Z,14.10
2023-05-09T00:13:41.860Z,14.20
2023-05-09T00:16:10.470Z,14.50
2023-05-09T00:18:42.264Z,14.50
2023-05-09T00:21:11.048Z,14.50
2023-05-09T00:23:39.368Z,14.50
2023-05-09T00:26:08.674Z,14.60
2023-05-09T00:28:36.889Z,14.60
2023-05-09T00:31:05.650Z,14.60
2023-05-09T00:33:33.706Z,14.60
2023-05-09T00:36:01.689Z,14.60
2023-05-09T00:38:29.699Z,14.60
2023-05-09T00:40:57.639Z,14.70
2023-05-09T00:43:26.953Z,14.60
2023-05-09T00:45:55.117Z,14.70
2023-05-09T00:48:23.332Z,14.80
2023-05-09T00:50:52.968Z,14.70
2023-05-09T00:53:21.296Z,14.60
2023-05-09T00:55:50.162Z,14.60
2023-05-09T00:58:19.375Z,14.50
2023-05-09T01:00:48.767Z,14.40
2023-05-09T01:03:17.195Z,14.30
2023-05-09T01:05:53.396Z,14.20
2023-05-09T01:08:35.409Z,14.20
2023-05-09T01:11:11.936Z,14.20
2023-05-09T01:13:48.995Z,14.10
2023-05-09T01:16:25.217Z,13.90
2023-05-09T01:18:58.305Z,13.90
2023-05-09T01:21:30.086Z,13.90
2023-05-09T01:24:27.681Z,14.00
2023-05-09T01:27:16.763Z,13.90
2023-05-09T01:29:48.447Z,14.00
2023-05-09T01:32:19.194Z,13.90
2023-05-09T01:34:50.638Z,14.00
2023-05-09T01:37:23.357Z,14.00
2023-05-09T01:39:57.054Z,14.10
2023-05-09T01:42:27.549Z,14.10
2023-05-09T01:44:58.770Z,14.10
2023-05-09T01:47:28.561Z,14.10
2023-05-09T01:49:57.114Z,14.00
2023-05-09T01:52:27.076Z,14.10
2023-05-09T01:54:55.779Z,14.10
2023-05-09T01:57:24.479Z,14.00
2023-05-09T01:59:53.374Z,13.90
2023-05-09T02:02:23.274Z,13.90
2023-05-09T02:04:51.594Z,13.80
2023-05-09T02:07:19.799Z,13.80
2023-05-09T02:09:48.420Z,13.80
2023-05-09T02:12:16.429Z,13.80
2023-05-09T02:14:44.927Z,13.90
2023-05-09T02:17:16.924Z,14.10
2023-05-09T02:19:46.342Z,14.10
2023-05-09T02:22:15.891Z,14.10
2023-05-09T02:24:45.169Z,14.10
2023-05-09T02:27:13.722Z,14.20
2023-05-09T02:29:45.552Z,14.30
2023-05-09T02:32:17.128Z,14.20
2023-05-09T02:34:48.038Z,14.20
2023-05-09T02:37:17.164Z,14.20
2023-05-09T02:39:45.488Z,14.30
2023-05-09T02:42:16.842Z,14.20
2023-05-09T02:44:44.757Z,14.20
2023-05-09T02:47:12.728Z,14.20
2023-05-09T02:49:40.730Z,14.20
2023-05-09T02:52:10.979Z,14.20
2023-05-09T02:54:39.182Z,14.20
2023-05-09T02:57:07.637Z,14.20
2023-05-09T02:59:35.583Z,14.20
2023-05-09T03:02:03.611Z,14.10
2023-05-09T03:04:31.672Z,14.10
2023-05-09T03:06:59.740Z,14.10
2023-05-09T03:09:29.090Z,14.00
2023-05-09T03:11:57.268Z,14.00
2023-05-09T03:14:26.006Z,13.90
2023-05-09T03:16:54.012Z,13.80
2023-05-09T03:19:22.027Z,13.80
2023-05-09T03:21:49.987Z,13.80
2023-05-09T03:24:18.049Z,13.80
2023-05-09T03:26:47.445Z,13.80
2023-05-09T03:29:15.414Z,13.80
2023-05-09T03:31:43.378Z,13.80
2023-05-09T03:34:15.143Z,13.80
2023-05-09T03:36:43.559Z,13.90
2023-05-09T03:39:11.997Z,13.80
2023-05-09T03:41:40.016Z,13.90
2023-05-09T03:44:09.470Z,13.80
2023-05-09T03:46:37.503Z,13.80
2023-05-09T03:49:05.503Z,13.80
2023-05-09T03:51:33.809Z,13.80
2023-05-09T03:54:01.835Z,13.80
2023-05-09T03:56:29.861Z,13.80
2023-05-09T03:58:57.864Z,13.80
2023-05-09T04:01:28.682Z,13.60
2023-05-09T04:03:57.542Z,13.60
2023-05-09T04:06:25.764Z,13.60
2023-05-09T04:08:53.820Z,13.60
2023-05-09T04:11:22.753Z,13.50
2023-05-09T04:13:50.839Z,13.50
2023-05-09T04:16:18.820Z,13.60
2023-05-09T04:18:48.200Z,13.60
2023-05-09T04:21:16.167Z,13.70
2023-05-09T04:23:44.625Z,13.70
2023-05-09T04:26:13.912Z,13.70
2023-05-09T04:28:41.946Z,13.80
2023-05-09T04:31:10.163Z,13.80
2023-05-09T04:33:39.063Z,13.80
2023-05-09T04:36:09.226Z,13.80
2023-05-09T04:38:37.211Z,13.90
2023-05-09T04:41:05.372Z,13.90
2023-05-09T04:43:33.660Z,14.00
2023-05-09T04:46:02.576Z,14.10
2023-05-09T04:48:30.669Z,14.10
2023-05-09T04:50:58.657Z,14.20
2023-05-09T04:53:28.279Z,14.40
2023-05-09T04:55:56.336Z,14.40
2023-05-09T04:58:25.679Z,14.50
2023-05-09T05:00:53.846Z,14.70
2023-05-09T05:03:21.794Z,14.80
2023-05-09T05:05:49.841Z,14.90
2023-05-09T05:08:17.959Z,15.10
2023-05-09T05:10:47.519Z,15.30
2023-05-09T05:13:15.679Z,15.60
2023-05-09T05:15:43.977Z,15.70
2023-05-09T05:18:12.182Z,15.80
2023-05-09T05:20:42.023Z,15.90
2023-05-09T05:23:10.301Z,15.90
2023-05-09T05:25:38.399Z,15.90
2023-05-09T05:28:07.808Z,15.80
2023-05-09T05:30:35.821Z,15.70
2023-05-09T05:33:03.870Z,15.70
2023-05-09T05:35:31.844Z,15.80
2023-05-09T05:37:59.856Z,15.90
2023-05-09T05:40:27.855Z,16.00
2023-05-09T05:42:55.855Z,16.20
2023-05-09T05:45:25.913Z,16.10
2023-05-09T05:47:54.499Z,15.80
2023-05-09T05:50:22.618Z,15.90
2023-05-09T05:52:50.614Z,15.90
2023-05-09T05:55:18.778Z,16.20
2023-05-09T05:57:47.569Z,16.20
2023-05-09T06:00:16.796Z,16.10
2023-05-09T06:02:47.704Z,16.20
2023-05-09T06:05:16.120Z,16.40
2023-05-09T06:07:45.551Z,16.90
2023-05-09T06:10:15.756Z,17.10
2023-05-09T06:12:43.830Z,17.70
2023-05-09T06:15:12.769Z,17.90
2023-05-09T06:17:41.195Z,18.60
2023-05-09T06:20:11.099Z,19.60
2023-05-09T06:22:39.490Z,19.80
2023-05-09T06:25:10.366Z,19.90
2023-05-09T06:27:38.804Z,19.00
2023-05-09T06:30:23.809Z,19.00
2023-05-09T06:32:53.351Z,19.10
2023-05-09T06:35:22.811Z,18.90
2023-05-09T06:37:50.976Z,18.90
2023-05-09T06:40:19.023Z,18.80
2023-05-09T06:42:47.011Z,18.70
2023-05-09T06:45:15.296Z,18.50
2023-05-09T06:47:43.451Z,18.60
2023-05-09T06:50:11.756Z,18.60
2023-05-09T06:52:41.119Z,19.00
2023-05-09T06:55:10.864Z,19.30
2023-05-09T06:57:39.524Z,19.00
2023-05-09T07:00:09.322Z,18.80
2023-05-09T07:02:41.487Z,18.80
2023-05-09T07:05:10.471Z,19.30
2023-05-09T07:07:40.709Z,19.50
2023-05-09T07:10:12.357Z,19.60
2023-05-09T07:12:41.367Z,19.20
2023-05-09T07:15:10.821Z,19.80
2023-05-09T07:17:38.995Z,20.60
2023-05-09T07:20:08.329Z,21.60
2023-05-09T07:22:37.315Z,23.40
2023-05-09T07:25:09.095Z,23.40
2023-05-09T07:27:37.241Z,23.70
2023-05-09T07:30:05.692Z,23.60
2023-05-09T07:32:34.281Z,23.40
2023-05-09T07:35:02.902Z,23.80
2023-05-09T07:37:32.469Z,23.60
2023-05-09T07:40:00.587Z,24.00
2023-05-09T07:42:30.451Z,24.50
2023-05-09T07:44:59.089Z,24.50
2023-05-09T07:47:27.352Z,24.70
2023-05-09T07:49:55.439Z,25.20
2023-05-09T07:52:23.561Z,25.10
2023-05-09T07:54:51.541Z,24.90
2023-05-09T07:57:19.457Z,24.70
2023-05-09T07:59:48.820Z,25.00
2023-05-09T08:02:16.884Z,25.50
2023-05-09T08:04:48.592Z,26.50
2023-05-09T08:07:16.791Z,27.30
2023-05-09T08:09:44.792Z,27.80
2023-05-09T08:12:12.779Z,27.50
2023-05-09T08:14:40.783Z,28.00
2023-05-09T08:17:10.237Z,28.00
2023-05-09T08:19:38.323Z,26.30
2023-05-09T08:22:06.363Z,25.30
2023-05-09T08:24:34.379Z,25.20
2023-05-09T08:27:02.624Z,25.30
2023-05-09T08:29:31.196Z,26.20
2023-05-09T08:31:59.330Z,26.60
2023-05-09T08:34:28.787Z,27.70
2023-05-09T08:36:56.797Z,27.90
2023-05-09T08:39:24.779Z,28.40
2023-05-09T08:41:54.161Z,28.50
2023-05-09T08:44:23.480Z,28.50
2023-05-09T08:46:55.669Z,28.70
2023-05-09T08:49:24.299Z,27.30
2023-05-09T08:51:53.861Z,26.20
2023-05-09T08:54:23.151Z,25.50
2023-05-09T08:56:51.540Z,25.10
2023-05-09T08:59:20.018Z,25.40
2023-05-09T09:01:48.999Z,25.20
2023-05-09T09:04:17.118Z,25.10
2023-05-09T09:06:45.388Z,24.60
2023-05-09T09:09:16.218Z,24.40
2023-05-09T09:11:45.305Z,25.20
2023-05-09T09:14:16.584Z,25.60
2023-05-09T09:16:47.178Z,26.10
2023-05-09T09:19:18.432Z,25.10
2023-05-09T09:21:47.819Z,25.00
2023-05-09T09:24:22.425Z,26.20
2023-05-09T09:26:51.390Z,27.00
2023-05-09T09:29:22.805Z,27.60
2023-05-09T09:31:55.150Z,27.60
2023-05-09T09:34:24.384Z,26.00
2023-05-09T09:36:52.495Z,25.20
2023-05-09T09:39:22.398Z,24.80
2023-05-09T09:41:50.422Z,24.50
2023-05-09T09:44:19.317Z,24.60
2023-05-09T09:46:50.452Z,24.50
2023-05-09T09:49:20.451Z,24.30
2023-05-09T09:51:51.985Z,24.20
2023-05-09T09:54:21.888Z,24.50
2023-05-09T09:56:51.804Z,25.50
2023-05-09T09:59:21.670Z,25.70
2023-05-09T10:02:02.933Z,24.70
2023-05-09T10:04:35.076Z,24.50
2023-05-09T10:07:05.810Z,24.90
2023-05-09T10:09:37.991Z,25.00
2023-05-09T10:12:07.385Z,24.90
2023-05-09T10:14:36.684Z,24.30
2023-05-09T10:17:05.982Z,24.10
2023-05-09T10:19:35.789Z,24.20
2023-05-09T10:22:06.002Z,24.30
2023-05-09T10:24:43.132Z,24.20
2023-05-09T10:27:12.930Z,24.00
2023-05-09T10:29:47.269Z,23.60
2023-05-09T10:32:24.502Z,24.40
2023-05-09T10:34:58.256Z,25.80
2023-05-09T10:37:26.508Z,26.80
2023-05-09T10:39:57.381Z,27.50
2023-05-09T10:42:26.023Z,28.40
2023-05-09T10:44:54.645Z,29.00
2023-05-09T10:47:23.369Z,29.40
2023-05-09T10:49:51.928Z,29.10
2023-05-09T10:52:22.550Z,28.80
2023-05-09T10:55:02.039Z,28.90
2023-05-09T10:57:33.322Z,28.20
2023-05-09T11:00:01.556Z,27.50
2023-05-09T11:02:32.212Z,28.10
2023-05-09T11:05:17.380Z,28.10
2023-05-09T11:07:46.064Z,28.80
2023-05-09T11:10:18.751Z,29.10
2023-05-09T11:12:58.175Z,29.20
2023-05-09T11:15:27.827Z,28.70
2023-05-09T11:18:07.798Z,28.00
2023-05-09T11:20:36.944Z,27.40
2023-05-09T11:23:05.966Z,26.40
2023-05-09T11:25:36.123Z,26.00
2023-05-09T11:28:04.240Z,25.90
2023-05-09T11:30:41.662Z,25.50
2023-05-09T11:33:23.738Z,26.00
2023-05-09T11:36:16.541Z,26.80
2023-05-09T11:38:44.759Z,27.00
2023-05-09T11:41:14.222Z,26.80
2023-05-09T11:43:44.325Z,26.30
2023-05-09T11:46:12.755Z,25.60
2023-05-09T11:48:42.158Z,25.60
2023-05-09T11:51:18.664Z,25.70
2023-05-09T11:53:47.749Z,26.00
2023-05-09T11:56:17.530Z,26.70
2023-05-09T11:58:46.761Z,27.30
2023-05-09T12:01:14.868Z,27.20
2023-05-09T12:03:45.022Z,26.90
2023-05-09T12:06:17.134Z,26.90
2023-05-09T12:08:45.563Z,26.80
2023-05-09T12:11:14.985Z,27.30
2023-05-09T12:13:48.865Z,27.50
2023-05-09T12:16:18.208Z,26.90
2023-05-09T12:18:47.710Z,26.80
2023-05-09T12:21:16.260Z,26.60
2023-05-09T12:23:44.652Z,26.80
2023-05-09T12:26:12.832Z,26.60
2023-05-09T12:28:41.713Z,26.80
2023-05-09T12:31:11.351Z,26.90
2023-05-09T12:33:40.080Z,26.10
2023-05-09T12:36:11.007Z,26.50
2023-05-09T12:38:39.605Z,26.90
2023-05-09T12:41:18.211Z,26.60
2023-05-09T12:43:57.418Z,26.60
2023-05-09T12:46:26.870Z,26.40
2023-05-09T12:48:55.205Z,26.40
2023-05-09T12:51:23.631Z,26.20
2023-05-09T12:53:52.450Z,26.00
2023-05-09T12:56:22.904Z,26.20
2023-05-09T12:58:52.714Z,26.00
2023-05-09T13:01:21.402Z,26.00
2023-05-09T13:03:54.591Z,26.30
2023-05-09T13:06:24.121Z,25.80
2023-05-09T13:09:02.314Z,25.70
2023-05-09T13:11:30.996Z,25.40
2023-05-09T13:13:59.416Z,25.60
2023-05-09T13:16:27.665Z,25.90
2023-05-09T13:18:57.178Z,26.20
2023-05-09T13:21:25.346Z,26.10
2023-05-09T13:23:53.384Z,26.50
2023-05-09T13:26:21.508Z,26.40
2023-05-09T13:28:49.654Z,26.20
2023-05-09T13:31:18.356Z,25.90
2023-05-09T13:33:46.910Z,25.70
2023-05-09T13:36:17.445Z,25.20
2023-05-09T13:38:45.818Z,25.20
2023-05-09T13:41:19.809Z,24.40
2023-05-09T13:43:48.020Z,24.40
2023-05-09T13:46:16.090Z,24.70
2023-05-09T13:48:44.352Z,24.80
2023-05-09T13:51:12.374Z,24.70
2023-05-09T13:53:41.916Z,24.90
2023-05-09T13:56:10.263Z,24.80
2023-05-09T13:58:38.283Z,25.00
2023-05-09T14:01:07.414Z,24.70
2023-05-09T14:03:35.847Z,24.60
2023-05-09T14:06:04.258Z,24.50
2023-05-09T14:08:33.075Z,24.30
2023-05-09T14:11:02.866Z,24.10
2023-05-09T14:13:32.705Z,24.10
2023-05-09T14:16:00.892Z,23.80
2023-05-09T14:18:31.963Z,23.60
2023-05-09T14:20:59.931Z,23.60
2023-05-09T14:23:27.967Z,23.70
2023-05-09T14:25:56.088Z,23.60
2023-05-09T14:28:25.838Z,23.60
2023-05-09T14:30:53.863Z,23.60
2023-05-09T14:33:21.862Z,23.60
2023-05-09T14:35:49.956Z,23.50
2023-05-09T14:38:17.977Z,23.80
2023-05-09T14:40:46.271Z,23.80
2023-05-09T14:43:14.257Z,23.70
2023-05-09T14:45:43.628Z,23.50
2023-05-09T14:48:12.734Z,23.10
2023-05-09T14:50:42.408Z,22.80
2023-05-09T14:53:11.057Z,22.90
2023-05-09T14:55:39.128Z,23.40
2023-05-09T14:58:07.758Z,23.80
2023-05-09T15:00:35.848Z,23.90
2023-05-09T15:03:05.454Z,24.20
2023-05-09T15:05:33.465Z,24.50
2023-05-09T15:08:01.875Z,24.60
2023-05-09T15:10:29.849Z,24.90
2023-05-09T15:12:58.257Z,25.00
2023-05-09T15:15:26.879Z,24.80
2023-05-09T15:17:55.339Z,24.70
2023-05-09T15:20:25.900Z,24.80
2023-05-09T15:22:53.926Z,24.60
2023-05-09T15:25:23.146Z,24.70
2023-05-09T15:27:51.328Z,24.60
2023-05-09T15:30:19.389Z,24.30
2023-05-09T15:32:47.512Z,24.30
2023-05-09T15:35:15.832Z,24.50
2023-05-09T15:37:45.409Z,24.40
2023-05-09T15:40:13.970Z,24.40
2023-05-09T15:42:42.226Z,24.40
2023-05-09T15:45:10.578Z,24.30
2023-05-09T15:47:38.628Z,24.20
2023-05-09T15:50:08.284Z,23.80
2023-05-09T15:52:36.336Z,23.70
2023-05-09T15:55:06.853Z,23.70
2023-05-09T15:57:35.022Z,23.70
2023-05-09T16:00:05.497Z,23.00
2023-05-09T16:02:33.636Z,23.20
2023-05-09T16:05:01.674Z,23.30
2023-05-09T16:07:29.722Z,23.50
2023-05-09T16:09:57.690Z,23.60
2023-05-09T16:12:27.042Z,23.50
2023-05-09T16:14:55.076Z,23.30
2023-05-09T16:17:23.109Z,23.10
2023-05-09T16:19:51.079Z,23.10
2023-05-09T16:22:19.245Z,23.20
2023-05-09T16:24:48.985Z,23.10
2023-05-09T16:27:16.970Z,23.10
2023-05-09T16:29:48.164Z,23.10
2023-05-09T16:32:17.143Z,22.90
2023-05-09T16:34:45.154Z,22.90
2023-05-09T16:37:13.180Z,22.80
2023-05-09T16:39:41.140Z,22.60
2023-05-09T16:42:09.170Z,22.60
2023-05-09T16:44:37.213Z,22.60
2023-05-09T16:47:06.922Z,22.50
2023-05-09T16:49:34.917Z,22.30
2023-05-09T16:52:03.061Z,22.10
2023-05-09T16:54:32.233Z,22.10
2023-05-09T16:57:00.878Z,21.80
2023-05-09T16:59:28.925Z,21.80
2023-05-09T17:01:57.613Z,21.70
2023-05-09T17:04:27.457Z,21.60
2023-05-09T17:06:55.501Z,21.50
2023-05-09T17:09:23.495Z,21.50
2023-05-09T17:11:51.922Z,21.50
2023-05-09T17:14:19.900Z,21.40
2023-05-09T17:16:47.868Z,21.30
2023-05-09T17:19:16.471Z,21.20
2023-05-09T17:21:45.941Z,21.20
2023-05-09T17:24:16.349Z,21.20
2023-05-09T17:26:44.311Z,21.20
2023-05-09T17:29:12.328Z,21.00
2023-05-09T17:31:40.729Z,20.90
2023-05-09T17:34:08.733Z,20.70
2023-05-09T17:36:36.715Z,20.20
2023-05-09T17:39:07.056Z,19.40
2023-05-09T17:41:35.014Z,18.90
2023-05-09T17:44:03.008Z,18.60
2023-05-09T17:46:31.134Z,18.30
2023-05-09T17:48:59.242Z,18.10
2023-05-09T17:51:27.203Z,18.00
2023-05-09T17:53:55.688Z,17.80
2023-05-09T17:56:25.008Z,17.60
2023-05-09T17:58:53.150Z,17.40
2023-05-09T18:01:21.472Z,17.30
2023-05-09T18:03:49.746Z,17.10
2023-05-09T18:06:18.470Z,17.00
2023-05-09T18:08:46.460Z,17.00
2023-05-09T18:11:14.517Z,16.90
2023-05-09T18:13:43.842Z,16.70
2023-05-09T18:16:11.946Z,16.60
2023-05-09T18:18:40.366Z,16.60
2023-05-09T18:21:09.515Z,16.50
2023-05-09T18:23:37.705Z,16.40
2023-05-09T18:26:05.681Z,16.30
2023-05-09T18:28:39.168Z,16.30
2023-05-09T18:31:11.668Z,16.30
2023-05-09T18:33:40.325Z,16.30
2023-05-09T18:36:10.176Z,16.30
2023-05-09T18:38:39.282Z,16.30
2023-05-09T18:41:08.420Z,16.20
2023-05-09T18:43:38.691Z,16.20
2023-05-09T18:46:08.480Z,16.20
2023-05-09T18:48:36.512Z,16.10
2023-05-09T18:51:04.818Z,16.10
2023-05-09T18:53:32.891Z,16.20
2023-05-09T18:56:08.792Z,16.20
2023-05-09T18:58:40.395Z,16.10
2023-05-09T19:01:18.678Z,16.10
2023-05-09T19:03:53.905Z,16.00
2023-05-09T19:06:24.090Z,15.90
2023-05-09T19:08:53.948Z,15.90
2023-05-09T19:11:24.346Z,15.80
2023-05-09T19:13:55.852Z,15.70
2023-05-09T19:16:27.360Z,15.70
2023-05-09T19:19:12.366Z,15.70
2023-05-09T19:21:43.574Z,15.70
2023-05-09T19:24:13.880Z,15.70
2023-05-09T19:26:44.820Z,15.70
2023-05-09T19:29:17.485Z,15.70
2023-05-09T19:31:52.707Z,15.60
2023-05-09T19:34:25.081Z,15.60
2023-05-09T19:36:53.119Z,15.60
2023-05-09T19:39:25.863Z,15.50
2023-05-09T19:41:54.246Z,15.40
2023-05-09T19:44:32.484Z,15.40
2023-05-09T19:47:05.102Z,15.40
2023-05-09T19:49:40.147Z,15.40
2023-05-09T19:52:10.055Z,15.40
2023-05-09T19:54:42.788Z,15.30
2023-05-09T19:57:13.276Z,15.20
2023-05-09T19:59:44.949Z,15.20
2023-05-09T20:02:17.732Z,15.20
2023-05-09T20:04:49.670Z,15.20
2023-05-09T20:07:21.552Z,15.10
2023-05-09T20:09:54.165Z,15.10
2023-05-09T20:12:24.618Z,15.10
2023-05-09T20:14:58.766Z,15.00
2023-05-09T20:17:30.817Z,15.00
2023-05-09T20:20:04.311Z,14.90
2023-05-09T20:22:34.149Z,14.90
2023-05-09T20:25:07.634Z,14.90
2023-05-09T20:27:37.336Z,14.90
2023-05-09T20:30:11.402Z,14.90
2023-05-09T20:32:43.203Z,14.90
2023-05-09T20:35:14.047Z,14.90
2023-05-09T20:37:58.894Z,14.90
2023-05-09T20:40:29.352Z,14.90
2023-05-09T20:43:04.126Z,14.80
2023-05-09T20:45:36.406Z,14.80
2023-05-09T20:48:10.355Z,14.70
2023-05-09T20:50:41.307Z,14.70
2023-05-09T20:53:20.735Z,14.70
2023-05-09T20:55:50.485Z,14.70
2023-05-09T20:58:18.832Z,14.70
2023-05-09T21:00:47.536Z,14.70
2023-05-09T21:03:17.186Z,14.70
2023-05-09T21:05:45.183Z,14.70
2023-05-09T21:08:13.496Z,14.70
2023-05-09T21:10:41.440Z,14.70
2023-05-09T21:13:09.512Z,14.70
2023-05-09T21:15:37.489Z,14.70
2023-05-09T21:18:06.003Z,14.70
2023-05-09T21:20:35.313Z,14.60
2023-05-09T21:23:03.254Z,14.60
2023-05-09T21:25:31.192Z,14.60
2023-05-09T21:27:59.160Z,14.60
2023-05-09T21:30:27.105Z,14.60
2023-05-09T21:32:55.125Z,14.60
2023-05-09T21:35:24.713Z,14.50
2023-05-09T21:37:54.105Z,14.50
2023-05-09T21:40:22.092Z,14.50
2023-05-09T21:42:50.145Z,14.50
2023-05-09T21:45:19.054Z,14.50
2023-05-09T21:47:47.134Z,14.50
2023-05-09T21:50:15.325Z,14.50
2023-05-09T21:52:43.396Z,14.50
2023-05-09T21:55:13.999Z,14.50
2023-05-09T21:57:42.045Z,14.50
2023-05-09T22:00:14.386Z,14.50
2023-05-09T22:02:42.927Z,14.50
2023-05-09T22:05:11.704Z,14.40
2023-05-09T22:07:39.867Z,14.50
2023-05-09T22:10:08.876Z,14.40
2023-05-09T22:12:38.146Z,14.40
2023-05-09T22:15:07.467Z,14.40
2023-05-09T22:17:37.538Z,14.40
2023-05-09T22:20:06.749Z,14.40
2023-05-09T22:22:34.729Z,14.40
2023-05-09T22:25:03.723Z,14.40
2023-05-09T22:27:31.647Z,14.40
2023-05-09T22:30:01.417Z,14.40
2023-05-09T22:32:29.562Z,14.40
2023-05-09T22:34:57.586Z,14.40
2023-05-09T22:37:25.626Z,14.40
2023-05-09T22:39:53.617Z,14.30
2023-05-09T22:42:21.601Z,14.40
2023-05-09T22:44:50.702Z,14.40
2023-05-09T22:47:20.077Z,14.40
2023-05-09T22:49:48.069Z,14.40
2023-05-09T22:52:16.024Z,14.30
2023-05-09T22:54:43.977Z,14.40
2023-05-09T22:57:12.124Z,14.40
2023-05-09T22:59:40.158Z,14.40
2023-05-09T23:02:08.200Z,14.40
2023-05-09T23:04:37.534Z,14.30
2023-05-09T23:07:05.517Z,14.30
2023-05-09T23:09:34.659Z,14.30
2023-05-09T23:12:02.666Z,14.40
2023-05-09T23:14:30.659Z,14.30
2023-05-09T23:16:58.683Z,14.40
2023-05-09T23:19:26.841Z,14.30
2023-05-09T23:21:59.367Z,14.30
2023-05-09T23:24:27.360Z,14.30
2023-05-09T23:26:55.402Z,14.30
2023-05-09T23:29:23.550Z,14.30
2023-05-09T23:31:51.574Z,14.30
2023-05-09T23:34:19.559Z,14.20
2023-05-09T23:36:47.692Z,14.20
2023-05-09T23:39:17.036Z,14.10
2023-05-09T23:41:45.094Z,14.10
2023-05-09T23:44:13.680Z,14.10
2023-05-09T23:46:41.687Z,14.10
2023-05-09T23:49:09.791Z,14.10
2023-05-09T23:51:37.741Z,14.10
2023-05-09T23:54:05.904Z,14.10
2023-05-09T23:56:35.430Z,14.10
2023-05-09T23:59:03.448Z,14.10
